Time;durP1;ratioP1;P1;durP2;ratioP2;P2;SDS_P1;SDS_P2;PMS_P1;PMS_P2;Temp;Humidity;BMP_temperature;BMP_pressure;BME280_temperature;BME280_humidity;BME280_pressure;Samples;Min_cycle;Max_cycle;Signal;HPM_P1;HPM_P2
2023/06/18 00:02:06;;;;;;;22.88;15.65;;;;;;;;;;6201061;23;20024;-81
2023/06/18 00:04:32;;;;;;;27.08;18.50;;;;;;;;;;6218270;23;20044;-81
2023/06/18 00:06:58;;;;;;;29.52;18.60;;;;;;;;;;6192884;23;20071;-81
2023/06/18 00:09:25;;;;;;;30.85;19.98;;;;;;;;;;6167032;23;20353;-81
2023/06/18 00:11:51;;;;;;;29.38;21.27;;;;;;;;;;6167440;23;20068;-81
2023/06/18 00:14:18;;;;;;;34.13;22.30;;;;;;;;;;6166614;23;20021;-82
2023/06/18 00:16:44;;;;;;;32.95;22.33;;;;;;;;;;6216950;23;20013;-81
2023/06/18 00:19:10;;;;;;;29.77;18.92;;;;;;;;;;6193439;23;20139;-81
2023/06/18 00:21:37;;;;;;;33.92;21.33;;;;;;;;;;6166017;23;20032;-81
2023/06/18 00:24:03;;;;;;;26.10;18.75;;;;;;;;;;6192950;23;20017;-81
2023/06/18 00:26:29;;;;;;;28.65;20.20;;;;;;;;;;6191329;23;20519;-81
2023/06/18 00:28:55;;;;;;;33.60;22.02;;;;;;;;;;6166053;23;20025;-81
2023/06/18 00:31:22;;;;;;;31.63;21.77;;;;;;;;;;6192871;23;20159;-81
2023/06/18 00:33:48;;;;;;;29.92;20.38;;;;;;;;;;6215323;23;20021;-81
2023/06/18 00:36:15;;;;;;;31.23;22.25;;;;;;;;;;6164898;23;20036;-81
2023/06/18 00:38:46;;;;;;;26.42;19.73;;;;;;;;;;6190165;23;20021;-81
2023/06/18 00:41:13;;;;;;;18.98;13.20;;;;;;;;;;6191917;23;20020;-81
2023/06/18 00:43:39;;;;;;;28.15;19.33;;;;;;;;;;6190595;23;20063;-81
2023/06/18 00:46:07;;;;;;;38.72;24.02;;;;;;;;;;6167414;23;20017;-80
2023/06/18 00:48:35;;;;;;;39.47;25.27;;;;;;;;;;6200278;23;20021;-80
2023/06/18 00:51:03;;;;;;;37.95;24.73;;;;;;;;;;6170934;23;20160;-80
2023/06/18 00:53:30;;;;;;;37.50;24.80;;;;;;;;;;6193633;23;20017;-80
2023/06/18 00:55:57;;;;;;;37.28;25.20;;;;;;;;;;6194775;23;20021;-80
2023/06/18 00:58:25;;;;;;;39.00;25.35;;;;;;;;;;6192906;23;20013;-82
2023/06/18 01:00:51;;;;;;;45.10;28.10;;;;;;;;;;6217341;23;20017;-81
2023/06/18 01:03:20;;;;;;;45.47;28.80;;;;;;;;;;6192998;23;20021;-82
2023/06/18 01:05:57;;;;;;;44.72;28.33;;;;;;;;;;6190611;23;20092;-81
2023/06/18 01:08:23;;;;;;;47.45;28.38;;;;;;;;;;6190688;23;20535;-81
2023/06/18 01:11:00;;;;;;;50.03;30.10;;;;;;;;;;6215424;23;20059;-81
2023/06/18 01:13:30;;;;;;;52.28;29.70;;;;;;;;;;6192110;23;20086;-81
2023/06/18 01:15:58;;;;;;;52.05;30.05;;;;;;;;;;6191067;23;20451;-81
2023/06/18 01:18:24;;;;;;;51.72;29.90;;;;;;;;;;6163999;23;20021;-81
2023/06/18 01:20:51;;;;;;;48.55;29.88;;;;;;;;;;6164529;23;20021;-81
2023/06/18 01:23:28;;;;;;;37.47;24.50;;;;;;;;;;6189799;23;20017;-81
2023/06/18 01:25:57;;;;;;;36.67;24.65;;;;;;;;;;6189122;23;20076;-81
2023/06/18 01:28:30;;;;;;;31.98;22.50;;;;;;;;;;6214040;23;20353;-81
2023/06/18 01:30:57;;;;;;;43.35;27.15;;;;;;;;;;6202001;23;20021;-81
2023/06/18 01:33:25;;;;;;;46.20;28.40;;;;;;;;;;6177724;23;20044;-81
2023/06/18 01:35:51;;;;;;;46.45;28.63;;;;;;;;;;6194061;23;20028;-81
2023/06/18 01:38:28;;;;;;;49.47;29.42;;;;;;;;;;6191934;23;20448;-81
2023/06/18 01:41:13;;;;;;;49.25;29.85;;;;;;;;;;6192449;23;20013;-81
2023/06/18 01:43:49;;;;;;;51.25;30.50;;;;;;;;;;6193662;23;20017;-81
2023/06/18 01:46:21;;;;;;;46.67;29.10;;;;;;;;;;6191979;23;20021;-81
2023/06/18 01:48:53;;;;;;;47.28;29.05;;;;;;;;;;6192987;23;20025;-81
2023/06/18 01:51:21;;;;;;;47.97;29.80;;;;;;;;;;6216051;23;20017;-81
2023/06/18 01:53:47;;;;;;;56.40;31.42;;;;;;;;;;6191798;23;20036;-81
2023/06/18 01:56:14;;;;;;;50.10;30.13;;;;;;;;;;6215472;23;20036;-81
2023/06/18 01:58:43;;;;;;;47.72;29.15;;;;;;;;;;6215518;23;20020;-81
2023/06/18 02:01:12;;;;;;;49.28;29.95;;;;;;;;;;6165720;23;20033;-81
2023/06/18 02:03:39;;;;;;;53.78;29.90;;;;;;;;;;6215833;23;20100;-81
2023/06/18 02:06:06;;;;;;;49.58;28.50;;;;;;;;;;6190688;23;20024;-81
2023/06/18 02:08:32;;;;;;;48.20;29.00;;;;;;;;;;6190859;23;20065;-81
2023/06/18 02:10:58;;;;;;;50.88;30.30;;;;;;;;;;6160142;23;20072;-81
2023/06/18 02:13:24;;;;;;;53.08;29.40;;;;;;;;;;6160509;23;20520;-81
2023/06/18 02:15:51;;;;;;;46.55;28.23;;;;;;;;;;6160846;23;20065;-81
2023/06/18 02:18:17;;;;;;;44.45;27.33;;;;;;;;;;6187072;23;20510;-81
2023/06/18 02:20:44;;;;;;;44.88;26.83;;;;;;;;;;6160773;23;20013;-82
2023/06/18 02:23:10;;;;;;;36.28;24.08;;;;;;;;;;6186564;23;20017;-81
2023/06/18 02:25:36;;;;;;;34.47;23.45;;;;;;;;;;6160385;23;20092;-80
2023/06/18 02:28:03;;;;;;;19.92;15.60;;;;;;;;;;6185244;23;20045;-80
2023/06/18 02:30:30;;;;;;;16.90;13.27;;;;;;;;;;6186431;23;20013;-80
2023/06/18 02:32:56;;;;;;;22.88;16.00;;;;;;;;;;6186120;23;20432;-80
2023/06/18 02:35:22;;;;;;;22.58;16.23;;;;;;;;;;6186273;23;20013;-80
2023/06/18 02:37:48;;;;;;;15.93;12.07;;;;;;;;;;6186049;23;20020;-80
2023/06/18 02:40:15;;;;;;;30.13;13.00;;;;;;;;;;6160191;23;20017;-81
2023/06/18 02:42:47;;;;;;;20.52;13.88;;;;;;;;;;6162118;23;20028;-80
2023/06/18 02:45:17;;;;;;;21.38;15.80;;;;;;;;;;6162209;23;20301;-80
2023/06/18 02:47:47;;;;;;;29.65;17.90;;;;;;;;;;6162468;23;20070;-80
2023/06/18 02:50:13;;;;;;;42.75;15.95;;;;;;;;;;6165084;23;20025;-80
2023/06/18 02:52:40;;;;;;;55.13;17.42;;;;;;;;;;6175198;23;20045;-80
2023/06/18 02:55:09;;;;;;;139.95;20.90;;;;;;;;;;6171026;23;20017;-81
2023/06/18 02:57:36;;;;;;;48.55;14.40;;;;;;;;;;6195192;23;20039;-80
2023/06/18 03:00:10;;;;;;;66.32;15.13;;;;;;;;;;6218192;23;20017;-80
2023/06/18 03:02:36;;;;;;;58.05;13.00;;;;;;;;;;6173915;23;20017;-80
2023/06/18 03:05:02;;;;;;;124.45;14.82;;;;;;;;;;6177554;23;20049;-80
2023/06/18 03:07:28;;;;;;;52.10;12.95;;;;;;;;;;6196666;23;20052;-80
2023/06/18 03:09:57;;;;;;;84.32;14.77;;;;;;;;;;6192097;23;20013;-81
2023/06/18 03:12:24;;;;;;;21.77;11.30;;;;;;;;;;6167104;23;20017;-81
2023/06/18 03:14:50;;;;;;;51.47;13.95;;;;;;;;;;6191428;23;20024;-80
2023/06/18 03:17:16;;;;;;;164.20;19.77;;;;;;;;;;6193540;23;20120;-80
2023/06/18 03:19:42;;;;;;;153.65;20.15;;;;;;;;;;6190926;23;20034;-80
2023/06/18 03:22:08;;;;;;;63.50;16.52;;;;;;;;;;6167493;23;20464;-81
2023/06/18 03:24:35;;;;;;;96.00;17.45;;;;;;;;;;6191174;23;20021;-81
2023/06/18 03:27:01;;;;;;;81.47;18.90;;;;;;;;;;6166767;23;20021;-80
2023/06/18 03:29:30;;;;;;;27.98;16.15;;;;;;;;;;6191470;23;20484;-81
2023/06/18 03:31:56;;;;;;;36.88;16.27;;;;;;;;;;6165287;23;20017;-80
2023/06/18 03:34:23;;;;;;;106.57;18.38;;;;;;;;;;6166136;23;20071;-80
2023/06/18 03:36:49;;;;;;;169.98;23.48;;;;;;;;;;6165594;23;20021;-80
2023/06/18 03:39:15;;;;;;;241.15;28.17;;;;;;;;;;6165807;23;20017;-80
2023/06/18 03:41:41;;;;;;;116.38;24.38;;;;;;;;;;6214079;23;20131;-80
2023/06/18 03:44:08;;;;;;;129.52;25.35;;;;;;;;;;6189731;23;20071;-81
2023/06/18 03:46:34;;;;;;;195.30;26.67;;;;;;;;;;6164251;23;20326;-81
2023/06/18 03:49:00;;;;;;;187.30;26.08;;;;;;;;;;6164497;23;20021;-81
2023/06/18 03:51:27;;;;;;;181.13;28.52;;;;;;;;;;6164086;23;20013;-81
2023/06/18 03:53:53;;;;;;;130.23;23.23;;;;;;;;;;6213754;23;20475;-81
2023/06/18 03:56:21;;;;;;;140.68;24.58;;;;;;;;;;6191030;23;20040;-80
2023/06/18 03:58:50;;;;;;;89.43;24.27;;;;;;;;;;6190691;23;20316;-80
2023/06/18 04:01:16;;;;;;;101.47;23.90;;;;;;;;;;6163817;23;20415;-80
2023/06/18 04:03:42;;;;;;;147.85;26.63;;;;;;;;;;6213736;23;20013;-80
2023/06/18 04:06:08;;;;;;;183.75;26.83;;;;;;;;;;6163416;23;20025;-80
2023/06/18 04:08:35;;;;;;;162.25;29.58;;;;;;;;;;6190827;23;20020;-80
2023/06/18 04:11:01;;;;;;;134.43;27.17;;;;;;;;;;6190230;23;20043;-80
2023/06/18 04:13:28;;;;;;;179.45;29.73;;;;;;;;;;6189943;23;20044;-80
2023/06/18 04:15:54;;;;;;;205.20;31.77;;;;;;;;;;6212589;23;20017;-80
2023/06/18 04:18:21;;;;;;;265.95;33.42;;;;;;;;;;6189184;23;20028;-81
2023/06/18 04:20:47;;;;;;;153.77;29.10;;;;;;;;;;6188784;23;20068;-81
2023/06/18 04:23:13;;;;;;;121.90;26.95;;;;;;;;;;6162066;23;20024;-80
2023/06/18 04:25:40;;;;;;;53.15;24.73;;;;;;;;;;6187308;23;20029;-80
2023/06/18 04:28:06;;;;;;;147.70;27.38;;;;;;;;;;6188107;23;20021;-80
2023/06/18 04:30:32;;;;;;;54.65;24.20;;;;;;;;;;6189084;23;20012;-80
2023/06/18 04:32:58;;;;;;;64.28;22.20;;;;;;;;;;6162684;23;20116;-81
2023/06/18 04:35:24;;;;;;;100.05;22.73;;;;;;;;;;6196638;23;20017;-81
2023/06/18 04:37:50;;;;;;;57.35;22.60;;;;;;;;;;6179150;23;20016;-81
2023/06/18 04:40:18;;;;;;;108.35;23.70;;;;;;;;;;6201606;23;20040;-81
2023/06/18 04:42:44;;;;;;;46.67;21.08;;;;;;;;;;6166812;23;20021;-81
2023/06/18 04:45:10;;;;;;;105.18;24.23;;;;;;;;;;6166135;23;20520;-81
2023/06/18 04:47:36;;;;;;;71.53;21.42;;;;;;;;;;6191646;23;20017;-81
2023/06/18 04:50:03;;;;;;;62.78;22.08;;;;;;;;;;6215041;23;20020;-81
2023/06/18 04:52:29;;;;;;;61.35;22.90;;;;;;;;;;6166219;23;20021;-81
2023/06/18 04:54:55;;;;;;;62.17;22.20;;;;;;;;;;6220054;23;20075;-81
2023/06/18 04:57:22;;;;;;;39.35;21.42;;;;;;;;;;6198093;23;20017;-81
2023/06/18 04:59:48;;;;;;;36.35;20.73;;;;;;;;;;6218316;23;20039;-81
2023/06/18 05:02:14;;;;;;;49.95;20.95;;;;;;;;;;6192402;23;20017;-80
2023/06/18 05:04:41;;;;;;;89.75;24.67;;;;;;;;;;6190990;23;20559;-80
2023/06/18 05:07:07;;;;;;;66.53;23.55;;;;;;;;;;6164936;23;20020;-81
2023/06/18 05:09:33;;;;;;;38.15;21.40;;;;;;;;;;6192628;23;20024;-81
2023/06/18 05:11:59;;;;;;;35.47;21.83;;;;;;;;;;6215489;23;20021;-81
2023/06/18 05:14:27;;;;;;;43.60;22.20;;;;;;;;;;6214823;23;20032;-81
2023/06/18 05:16:53;;;;;;;36.33;20.70;;;;;;;;;;6164465;23;20017;-81
2023/06/18 05:19:19;;;;;;;41.05;22.40;;;;;;;;;;6164312;23;20564;-80
2023/06/18 05:21:45;;;;;;;39.42;23.10;;;;;;;;;;6189328;23;20096;-81
2023/06/18 05:24:11;;;;;;;39.10;22.80;;;;;;;;;;6213604;23;20020;-80
2023/06/18 05:26:37;;;;;;;35.53;21.10;;;;;;;;;;6164201;23;20021;-80
2023/06/18 05:29:03;;;;;;;34.15;22.73;;;;;;;;;;6164637;23;20023;-80
2023/06/18 05:31:30;;;;;;;37.95;23.13;;;;;;;;;;6189295;23;20021;-80
2023/06/18 05:33:56;;;;;;;36.53;21.35;;;;;;;;;;6164138;23;20021;-80
2023/06/18 05:36:22;;;;;;;34.22;22.10;;;;;;;;;;6213699;23;20025;-80
2023/06/18 05:38:50;;;;;;;32.78;21.98;;;;;;;;;;6164052;23;20396;-80
2023/06/18 05:41:16;;;;;;;31.98;21.45;;;;;;;;;;6187606;23;20025;-80
2023/06/18 05:43:42;;;;;;;30.60;21.45;;;;;;;;;;6162722;23;20067;-80
2023/06/18 05:46:08;;;;;;;30.27;21.63;;;;;;;;;;6188248;23;20097;-80
2023/06/18 05:48:34;;;;;;;31.60;21.67;;;;;;;;;;6162021;23;20027;-80
2023/06/18 05:51:00;;;;;;;31.98;20.90;;;;;;;;;;6212638;23;20013;-81
2023/06/18 05:53:26;;;;;;;31.17;20.77;;;;;;;;;;6162684;23;20017;-80
2023/06/18 05:55:52;;;;;;;32.95;22.40;;;;;;;;;;6211554;23;20017;-80
2023/06/18 05:58:18;;;;;;;29.38;20.10;;;;;;;;;;6161838;23;20021;-80
2023/06/18 06:00:44;;;;;;;31.05;21.58;;;;;;;;;;6161925;23;20017;-80
2023/06/18 06:03:11;;;;;;;31.73;21.42;;;;;;;;;;6162415;23;20048;-81
2023/06/18 06:05:37;;;;;;;32.70;22.10;;;;;;;;;;6186354;23;20051;-80
2023/06/18 06:08:03;;;;;;;29.02;20.98;;;;;;;;;;6161804;23;20075;-80
2023/06/18 06:10:29;;;;;;;30.80;21.50;;;;;;;;;;6200249;23;20067;-79
2023/06/18 06:12:55;;;;;;;32.30;21.90;;;;;;;;;;6200947;23;20052;-80
2023/06/18 06:15:22;;;;;;;31.42;21.90;;;;;;;;;;6192409;23;20032;-80
2023/06/18 06:17:48;;;;;;;30.35;22.13;;;;;;;;;;6167691;23;20017;-80
2023/06/18 06:20:14;;;;;;;31.08;22.38;;;;;;;;;;6191628;23;20017;-80
2023/06/18 06:22:41;;;;;;;30.05;21.23;;;;;;;;;;6193588;23;20523;-80
2023/06/18 06:25:07;;;;;;;32.88;21.70;;;;;;;;;;6168268;23;20023;-80
2023/06/18 06:27:33;;;;;;;29.50;21.23;;;;;;;;;;6165743;23;20021;-81
2023/06/18 06:30:01;;;;;;;31.92;21.50;;;;;;;;;;6166708;23;20027;-80
2023/06/18 06:32:27;;;;;;;30.88;22.33;;;;;;;;;;6166999;23;20051;-80
2023/06/18 06:34:53;;;;;;;34.20;23.42;;;;;;;;;;6191750;23;20021;-80
2023/06/18 06:37:20;;;;;;;33.47;22.48;;;;;;;;;;6215996;23;20021;-80
2023/06/18 06:39:46;;;;;;;32.28;22.27;;;;;;;;;;6190919;23;20020;-80
2023/06/18 06:42:13;;;;;;;29.67;21.52;;;;;;;;;;6165430;23;20021;-82
2023/06/18 06:44:39;;;;;;;31.27;22.23;;;;;;;;;;6165179;23;20021;-81
2023/06/18 06:47:05;;;;;;;33.47;23.27;;;;;;;;;;6190476;23;20044;-81
2023/06/18 06:49:31;;;;;;;32.95;21.77;;;;;;;;;;6160707;23;20091;-82
2023/06/18 06:51:57;;;;;;;32.65;22.63;;;;;;;;;;6160804;23;20475;-81
2023/06/18 06:54:24;;;;;;;28.98;21.23;;;;;;;;;;6185206;23;20456;-81
2023/06/18 06:56:50;;;;;;;32.03;21.70;;;;;;;;;;6161080;23;20013;-82
2023/06/18 06:59:16;;;;;;;29.40;21.58;;;;;;;;;;6201515;23;20048;-84
2023/06/18 07:01:45;;;;;;;30.20;22.40;;;;;;;;;;6196213;23;20440;-84
2023/06/18 07:04:11;;;;;;;29.05;20.98;;;;;;;;;;6166780;23;20021;-84
2023/06/18 07:06:38;;;;;;;30.25;21.80;;;;;;;;;;6190396;23;20021;-84
2023/06/18 07:09:05;;;;;;;32.20;22.30;;;;;;;;;;6167462;23;20096;-84
2023/06/18 07:11:40;;;;;;;29.58;20.77;;;;;;;;;;6161744;23;20071;-82
2023/06/18 07:14:06;;;;;;;31.65;22.10;;;;;;;;;;6158822;23;20013;-82
2023/06/18 07:16:32;;;;;;;30.25;21.65;;;;;;;;;;6185579;23;20024;-82
2023/06/18 07:19:01;;;;;;;30.50;21.63;;;;;;;;;;6185202;23;20153;-82
2023/06/18 07:21:27;;;;;;;30.23;21.33;;;;;;;;;;6186465;23;20088;-81
2023/06/18 07:23:53;;;;;;;30.77;21.50;;;;;;;;;;6160635;23;20459;-81
2023/06/18 07:26:19;;;;;;;28.88;21.27;;;;;;;;;;6209842;23;20052;-81
2023/06/18 07:28:45;;;;;;;27.08;20.40;;;;;;;;;;6210118;23;20092;-81
2023/06/18 07:31:11;;;;;;;30.70;20.40;;;;;;;;;;6185647;23;20017;-81
2023/06/18 07:33:37;;;;;;;28.02;19.70;;;;;;;;;;6160743;23;20013;-81
2023/06/18 07:36:06;;;;;;;25.63;19.65;;;;;;;;;;6211013;23;20017;-83
2023/06/18 07:38:32;;;;;;;28.30;20.67;;;;;;;;;;6188034;23;20343;-84
2023/06/18 07:40:58;;;;;;;26.40;20.13;;;;;;;;;;6162474;23;20040;-82
2023/06/18 07:43:24;;;;;;;24.50;19.67;;;;;;;;;;6168330;23;20021;-82
2023/06/18 07:45:53;;;;;;;25.85;19.15;;;;;;;;;;6172108;23;20017;-82
2023/06/18 07:48:20;;;;;;;26.83;18.40;;;;;;;;;;6170118;23;20171;-82
2023/06/18 07:50:46;;;;;;;24.10;18.90;;;;;;;;;;6194830;23;20017;-82
2023/06/18 07:53:12;;;;;;;26.95;18.92;;;;;;;;;;6195630;23;20017;-82
2023/06/18 07:55:38;;;;;;;23.92;18.88;;;;;;;;;;6168236;23;20064;-82
2023/06/18 07:58:04;;;;;;;26.00;18.80;;;;;;;;;;6168321;23;20017;-82
2023/06/18 08:00:30;;;;;;;24.10;17.77;;;;;;;;;;6194564;23;20049;-82
2023/06/18 08:02:56;;;;;;;24.90;17.98;;;;;;;;;;6191926;23;20017;-82
2023/06/18 08:05:22;;;;;;;25.35;18.63;;;;;;;;;;6167710;23;20017;-82
2023/06/18 08:07:48;;;;;;;23.70;18.17;;;;;;;;;;6166847;23;20013;-82
2023/06/18 08:10:14;;;;;;;24.60;18.20;;;;;;;;;;6191935;23;20334;-82
2023/06/18 08:12:40;;;;;;;22.83;17.67;;;;;;;;;;6167051;23;20436;-82
2023/06/18 08:15:07;;;;;;;22.88;17.10;;;;;;;;;;6191277;23;20331;-82
2023/06/18 08:17:35;;;;;;;24.02;17.30;;;;;;;;;;6166364;23;20352;-82
2023/06/18 08:20:02;;;;;;;23.02;16.95;;;;;;;;;;6193165;23;20466;-82
2023/06/18 08:22:28;;;;;;;24.45;17.23;;;;;;;;;;6165549;23;20043;-83
2023/06/18 08:24:54;;;;;;;23.80;17.13;;;;;;;;;;6215799;23;20017;-83
2023/06/18 08:27:20;;;;;;;22.88;17.25;;;;;;;;;;6214559;23;20166;-82
2023/06/18 08:29:46;;;;;;;22.88;17.10;;;;;;;;;;6164910;23;20024;-82
2023/06/18 08:32:13;;;;;;;20.88;16.48;;;;;;;;;;6191355;23;20013;-82
2023/06/18 08:34:42;;;;;;;19.27;16.05;;;;;;;;;;6164274;23;20033;-82
2023/06/18 08:37:12;;;;;;;23.23;16.70;;;;;;;;;;6163402;23;20027;-82
2023/06/18 08:39:38;;;;;;;23.33;17.10;;;;;;;;;;6188885;23;20096;-82
2023/06/18 08:42:05;;;;;;;21.38;16.98;;;;;;;;;;6189576;23;20013;-82
2023/06/18 08:44:33;;;;;;;22.48;17.10;;;;;;;;;;6211840;23;20013;-82
2023/06/18 08:47:00;;;;;;;25.25;19.08;;;;;;;;;;6162183;23;20017;-82
2023/06/18 08:49:27;;;;;;;23.35;16.50;;;;;;;;;;6212551;23;20024;-83
2023/06/18 08:52:09;;;;;;;22.55;16.58;;;;;;;;;;6162764;23;20389;-82
2023/06/18 08:54:36;;;;;;;20.27;16.40;;;;;;;;;;6187572;23;20334;-83
2023/06/18 08:57:11;;;;;;;21.30;16.70;;;;;;;;;;6188271;23;20020;-83
2023/06/18 08:59:37;;;;;;;22.93;17.23;;;;;;;;;;6186238;23;20019;-84
2023/06/18 09:02:05;;;;;;;20.45;16.38;;;;;;;;;;6196860;23;20347;-83
2023/06/18 09:04:32;;;;;;;23.85;16.40;;;;;;;;;;6192733;23;20044;-84
2023/06/18 09:06:58;;;;;;;21.85;16.42;;;;;;;;;;6162967;23;20025;-84
2023/06/18 09:09:25;;;;;;;21.65;15.70;;;;;;;;;;6190147;23;20077;-83
2023/06/18 09:11:51;;;;;;;19.33;15.88;;;;;;;;;;6164795;23;20056;-83
2023/06/18 09:14:17;;;;;;;18.10;14.98;;;;;;;;;;6190306;23;20318;-83
2023/06/18 09:16:43;;;;;;;17.15;14.10;;;;;;;;;;6194627;23;20017;-83
2023/06/18 09:19:09;;;;;;;17.50;14.82;;;;;;;;;;6195094;23;20062;-83
2023/06/18 09:21:40;;;;;;;20.10;15.27;;;;;;;;;;6165415;23;20459;-83
2023/06/18 09:24:10;;;;;;;19.63;14.18;;;;;;;;;;6214298;23;20032;-83
2023/06/18 09:26:36;;;;;;;23.67;13.98;;;;;;;;;;6190268;23;20100;-83
2023/06/18 09:29:06;;;;;;;15.82;12.95;;;;;;;;;;6189660;23;20017;-83
2023/06/18 09:31:34;;;;;;;14.68;12.35;;;;;;;;;;6190151;23;20017;-83
2023/06/18 09:34:21;;;;;;;16.80;13.07;;;;;;;;;;6162727;23;20017;-83
2023/06/18 09:36:48;;;;;;;16.48;12.73;;;;;;;;;;6187712;23;20021;-83
2023/06/18 09:39:19;;;;;;;15.40;11.90;;;;;;;;;;6212031;23;20091;-83
2023/06/18 09:41:46;;;;;;;14.93;12.27;;;;;;;;;;6212339;23;20017;-83
2023/06/18 09:44:15;;;;;;;12.25;10.90;;;;;;;;;;6162808;23;20021;-83
2023/06/18 09:46:43;;;;;;;14.18;11.10;;;;;;;;;;6211303;23;20017;-83
2023/06/18 09:49:09;;;;;;;14.90;10.88;;;;;;;;;;6212020;23;20020;-83
2023/06/18 09:51:40;;;;;;;14.35;11.68;;;;;;;;;;6187315;23;20360;-84
2023/06/18 09:54:06;;;;;;;13.02;10.57;;;;;;;;;;6189771;23;20105;-83
2023/06/18 09:56:32;;;;;;;13.35;10.43;;;;;;;;;;6163212;23;20431;-83
2023/06/18 09:58:59;;;;;;;12.45;8.93;;;;;;;;;;6190137;23;20022;-83
2023/06/18 10:01:27;;;;;;;11.55;9.05;;;;;;;;;;6161727;23;20017;-85
2023/06/18 10:03:56;;;;;;;12.55;9.00;;;;;;;;;;6188099;23;20067;-84
2023/06/18 10:06:23;;;;;;;13.35;9.93;;;;;;;;;;6163377;23;20071;-82
2023/06/18 10:08:56;;;;;;;11.40;9.57;;;;;;;;;;6189742;23;20016;-82
2023/06/18 10:11:22;;;;;;;11.05;8.48;;;;;;;;;;6188320;23;20017;-82
2023/06/18 10:13:49;;;;;;;9.32;7.20;;;;;;;;;;6163579;23;20017;-82
2023/06/18 10:16:16;;;;;;;10.32;8.23;;;;;;;;;;6163631;23;20029;-82
2023/06/18 10:18:51;;;;;;;9.02;7.25;;;;;;;;;;6163983;23;20021;-82
2023/06/18 10:21:18;;;;;;;10.10;8.40;;;;;;;;;;6213810;23;20013;-82
2023/06/18 10:23:46;;;;;;;10.95;8.30;;;;;;;;;;6163711;23;20052;-82
2023/06/18 10:26:12;;;;;;;10.35;9.00;;;;;;;;;;6164336;23;20028;-82
2023/06/18 10:28:39;;;;;;;9.52;7.65;;;;;;;;;;6164778;23;20434;-82
2023/06/18 10:31:06;;;;;;;7.75;7.03;;;;;;;;;;6188563;23;20036;-83
2023/06/18 10:33:34;;;;;;;9.25;7.47;;;;;;;;;;6163482;23;20020;-82
2023/06/18 10:36:01;;;;;;;9.60;8.20;;;;;;;;;;6163650;23;20023;-82
2023/06/18 10:38:27;;;;;;;9.63;8.15;;;;;;;;;;6214362;23;20017;-82
2023/06/18 10:41:09;;;;;;;9.65;8.18;;;;;;;;;;6190134;23;20024;-83
2023/06/18 10:43:38;;;;;;;8.90;7.60;;;;;;;;;;6168468;23;20024;-82
2023/06/18 10:46:09;;;;;;;8.90;8.00;;;;;;;;;;6165706;23;20471;-84
2023/06/18 10:48:35;;;;;;;9.48;7.55;;;;;;;;;;6197177;23;20076;-84
2023/06/18 10:51:20;;;;;;;10.77;8.55;;;;;;;;;;6168518;23;20104;-83
2023/06/18 10:53:46;;;;;;;9.68;7.97;;;;;;;;;;6192424;23;20025;-83
2023/06/18 10:56:16;;;;;;;8.90;8.00;;;;;;;;;;6167834;23;20044;-83
2023/06/18 10:58:43;;;;;;;8.70;7.72;;;;;;;;;;6189065;23;20013;-85
2023/06/18 11:01:25;;;;;;;10.02;8.20;;;;;;;;;;6191802;23;20016;-83
2023/06/18 11:04:01;;;;;;;7.88;7.07;;;;;;;;;;6197575;23;20502;-83
2023/06/18 11:06:30;;;;;;;9.05;8.02;;;;;;;;;;6171086;23;20031;-83
2023/06/18 11:08:56;;;;;;;8.82;7.93;;;;;;;;;;6197078;23;20093;-82
2023/06/18 11:11:24;;;;;;;9.23;7.85;;;;;;;;;;6220282;23;20507;-83
2023/06/18 11:13:53;;;;;;;10.68;8.20;;;;;;;;;;6170507;23;20017;-84
2023/06/18 11:16:19;;;;;;;11.27;8.07;;;;;;;;;;6169311;23;20017;-83
2023/06/18 11:18:46;;;;;;;9.45;7.63;;;;;;;;;;6194305;23;20024;-83
2023/06/18 11:21:16;;;;;;;8.48;7.63;;;;;;;;;;6163009;23;20028;-83
2023/06/18 11:23:43;;;;;;;9.70;7.47;;;;;;;;;;6162109;23;20444;-83
2023/06/18 11:26:19;;;;;;;7.70;7.00;;;;;;;;;;6186367;23;20024;-83
2023/06/18 11:28:46;;;;;;;8.32;7.22;;;;;;;;;;6160928;23;20375;-82
2023/06/18 11:31:12;;;;;;;8.98;7.88;;;;;;;;;;6186706;23;20048;-82
2023/06/18 11:33:39;;;;;;;9.52;7.28;;;;;;;;;;6160817;23;20020;-83
2023/06/18 11:36:07;;;;;;;14.13;8.00;;;;;;;;;;6186142;23;20029;-83
2023/06/18 11:38:33;;;;;;;8.60;7.68;;;;;;;;;;6161312;23;20100;-83
2023/06/18 11:40:59;;;;;;;10.57;7.80;;;;;;;;;;6186172;23;20060;-83
2023/06/18 11:43:25;;;;;;;9.38;8.43;;;;;;;;;;6185137;23;20092;-83
2023/06/18 11:45:53;;;;;;;8.98;7.60;;;;;;;;;;6159635;23;20428;-82
2023/06/18 11:48:22;;;;;;;13.90;8.20;;;;;;;;;;6159086;23;20020;-82
2023/06/18 11:50:53;;;;;;;10.50;8.73;;;;;;;;;;6210458;23;20028;-82
2023/06/18 11:53:20;;;;;;;12.95;8.63;;;;;;;;;;6185688;23;20436;-82
2023/06/18 11:55:46;;;;;;;8.20;7.35;;;;;;;;;;6160695;23;20438;-82
2023/06/18 11:58:12;;;;;;;8.70;7.68;;;;;;;;;;6210480;23;20447;-83
2023/06/18 12:00:38;;;;;;;8.85;7.95;;;;;;;;;;6185472;23;20028;-83
2023/06/18 12:03:04;;;;;;;9.02;7.75;;;;;;;;;;6186412;23;20017;-82
2023/06/18 12:05:37;;;;;;;10.55;7.85;;;;;;;;;;6185661;23;20021;-82
2023/06/18 12:08:11;;;;;;;9.77;8.25;;;;;;;;;;6186411;23;20017;-82
2023/06/18 12:10:38;;;;;;;9.27;7.38;;;;;;;;;;6185270;23;20024;-84
2023/06/18 12:13:10;;;;;;;9.48;7.80;;;;;;;;;;6186026;23;20024;-84
2023/06/18 12:15:45;;;;;;;8.35;7.53;;;;;;;;;;6185755;23;20344;-84
2023/06/18 12:18:24;;;;;;;8.38;7.57;;;;;;;;;;6187730;23;20013;-83
2023/06/18 12:20:50;;;;;;;8.77;7.88;;;;;;;;;;6191259;23;20021;-83
2023/06/18 12:23:17;;;;;;;8.45;7.65;;;;;;;;;;6217128;23;20021;-83
2023/06/18 12:25:43;;;;;;;8.55;7.70;;;;;;;;;;6189556;23;20045;-83
2023/06/18 12:28:10;;;;;;;8.48;7.30;;;;;;;;;;6161573;23;20013;-83
2023/06/18 12:30:38;;;;;;;8.23;7.35;;;;;;;;;;6212772;23;20017;-83
2023/06/18 12:33:04;;;;;;;8.50;7.63;;;;;;;;;;6161689;23;20036;-83
2023/06/18 12:35:30;;;;;;;9.57;7.38;;;;;;;;;;6188095;23;20471;-83
2023/06/18 12:38:01;;;;;;;8.18;7.38;;;;;;;;;;6160280;23;20025;-84
2023/06/18 12:40:27;;;;;;;9.82;7.93;;;;;;;;;;6187109;23;20522;-83
2023/06/18 12:42:53;;;;;;;9.93;7.93;;;;;;;;;;6186178;23;20024;-83
2023/06/18 12:45:23;;;;;;;9.35;7.82;;;;;;;;;;6185072;23;20048;-83
2023/06/18 12:47:51;;;;;;;9.98;8.63;;;;;;;;;;6184915;23;20013;-84
2023/06/18 12:50:21;;;;;;;10.20;9.00;;;;;;;;;;6187246;23;20048;-83
2023/06/18 12:52:47;;;;;;;9.23;8.32;;;;;;;;;;6160973;23;20021;-83
2023/06/18 12:55:14;;;;;;;9.15;8.05;;;;;;;;;;6185373;23;20029;-83
2023/06/18 12:57:50;;;;;;;12.32;8.30;;;;;;;;;;6210696;23;20024;-83
2023/06/18 13:00:23;;;;;;;10.07;8.10;;;;;;;;;;6186711;23;20088;-83
2023/06/18 13:02:52;;;;;;;10.88;8.93;;;;;;;;;;6160662;23;20096;-83
2023/06/18 13:05:19;;;;;;;12.05;9.23;;;;;;;;;;6188246;23;20056;-83
2023/06/18 13:07:52;;;;;;;10.50;8.48;;;;;;;;;;6196496;23;20017;-83
2023/06/18 13:10:22;;;;;;;10.77;8.68;;;;;;;;;;6170465;23;20440;-81
2023/06/18 13:12:49;;;;;;;10.30;8.75;;;;;;;;;;6194044;23;20064;-82
2023/06/18 13:15:15;;;;;;;9.88;8.88;;;;;;;;;;6195189;23;20017;-83
2023/06/18 13:17:45;;;;;;;12.38;8.82;;;;;;;;;;6167886;23;20328;-82
2023/06/18 13:20:11;;;;;;;11.38;9.05;;;;;;;;;;6193811;23;20099;-83
2023/06/18 13:22:38;;;;;;;9.93;8.48;;;;;;;;;;6166786;23;20031;-83
2023/06/18 13:25:05;;;;;;;10.50;8.73;;;;;;;;;;6191487;23;20135;-83
2023/06/18 13:27:31;;;;;;;11.10;9.40;;;;;;;;;;6192224;23;20077;-84
2023/06/18 13:29:57;;;;;;;10.45;8.50;;;;;;;;;;6188912;23;20071;-83
2023/06/18 13:32:24;;;;;;;9.55;8.45;;;;;;;;;;6190256;23;20036;-83
2023/06/18 13:34:50;;;;;;;11.35;8.90;;;;;;;;;;6190260;23;20017;-83
2023/06/18 13:37:17;;;;;;;11.25;9.05;;;;;;;;;;6165728;23;20518;-83
2023/06/18 13:39:45;;;;;;;10.32;8.50;;;;;;;;;;6190852;23;20044;-84
2023/06/18 13:42:11;;;;;;;12.02;8.68;;;;;;;;;;6163843;23;20452;-83
2023/06/18 13:44:37;;;;;;;10.48;8.23;;;;;;;;;;6187681;23;20395;-83
2023/06/18 13:47:04;;;;;;;9.65;8.65;;;;;;;;;;6189982;23;20143;-83
2023/06/18 13:49:31;;;;;;;10.27;9.18;;;;;;;;;;6192516;23;20025;-83
2023/06/18 13:51:58;;;;;;;10.52;8.85;;;;;;;;;;6196155;23;20067;-83
2023/06/18 13:54:24;;;;;;;10.50;9.13;;;;;;;;;;6191954;23;20013;-83
2023/06/18 13:56:50;;;;;;;10.13;8.50;;;;;;;;;;6190297;23;20024;-83
2023/06/18 13:59:16;;;;;;;9.00;8.10;;;;;;;;;;6189797;23;20017;-83
2023/06/18 14:01:43;;;;;;;10.75;8.38;;;;;;;;;;6165170;23;20367;-83
2023/06/18 14:04:09;;;;;;;8.85;7.95;;;;;;;;;;6191622;23;20449;-83
2023/06/18 14:06:35;;;;;;;10.35;8.93;;;;;;;;;;6165057;23;20063;-83
2023/06/18 14:09:01;;;;;;;12.40;8.75;;;;;;;;;;6166248;23;20044;-83
2023/06/18 14:11:27;;;;;;;9.85;8.27;;;;;;;;;;6215761;23;20013;-82
2023/06/18 14:13:54;;;;;;;10.82;8.57;;;;;;;;;;6215403;23;20044;-83
2023/06/18 14:16:20;;;;;;;9.27;7.90;;;;;;;;;;6191586;23;20025;-83
2023/06/18 14:18:48;;;;;;;9.98;8.07;;;;;;;;;;6163476;23;20065;-83
2023/06/18 14:21:14;;;;;;;9.82;8.25;;;;;;;;;;6188421;23;20045;-83
2023/06/18 14:23:43;;;;;;;10.23;8.57;;;;;;;;;;6164102;23;20020;-83